createdAt,value
2022-10-16T00:10:04.716Z,26.428
2022-10-16T00:25:06.517Z,27.038
2022-10-16T00:40:08.380Z,26.711
2022-10-16T00:55:10.206Z,27.734
2022-10-16T01:10:12.009Z,27.425
2022-10-16T01:25:13.850Z,26.972
2022-10-16T01:40:15.665Z,27.685
2022-10-16T01:55:17.506Z,27.371
2022-10-16T02:10:19.393Z,27.175
2022-10-16T02:25:21.254Z,28.819
2022-10-16T02:40:25.364Z,28.743
2022-10-16T02:55:27.429Z,27.592
2022-10-16T03:10:29.263Z,27.427
2022-10-16T03:25:31.101Z,26.828
2022-10-16T03:40:32.930Z,28.569
2022-10-16T03:55:34.749Z,28.376
2022-10-16T04:10:36.588Z,27.305
2022-10-16T04:25:38.446Z,27.896
2022-10-16T04:40:40.280Z,26.91
2022-10-16T04:55:42.096Z,27.28
2022-10-16T05:10:43.949Z,27.472
2022-10-16T05:25:45.770Z,26.393
2022-10-16T05:40:47.609Z,26.944
2022-10-16T05:55:49.451Z,26.551
2022-10-16T06:10:51.282Z,27.258
2022-10-16T06:25:53.075Z,27.549
2022-10-16T06:40:54.911Z,26.921
2022-10-16T06:55:56.772Z,26.496
2022-10-16T07:10:58.601Z,26.617
2022-10-16T07:26:00.451Z,27.6
2022-10-16T07:41:02.276Z,27.524
2022-10-16T07:56:04.108Z,27.867
2022-10-16T08:11:05.954Z,27.836
2022-10-16T08:26:07.815Z,27.537
2022-10-16T08:41:09.635Z,27.363
2022-10-16T08:56:11.453Z,27.219
2022-10-16T09:11:13.295Z,26.455
2022-10-16T09:26:15.177Z,27.824
2022-10-16T09:41:17.094Z,26.085
2022-10-16T09:56:18.946Z,26.263
2022-10-16T10:11:20.765Z,26.126
2022-10-16T10:26:22.588Z,25.782
2022-10-16T10:41:26.629Z,26.673
2022-10-16T10:56:31.063Z,26.214
2022-10-16T11:11:32.912Z,26.579
2022-10-16T11:26:34.761Z,26.041
2022-10-16T11:41:36.610Z,26.889
2022-10-16T11:56:38.432Z,26.239
2022-10-16T12:11:40.245Z,26.021
2022-10-16T12:26:42.090Z,26.156
2022-10-16T12:41:43.923Z,25.949
2022-10-16T12:56:45.775Z,25.891
2022-10-16T13:11:47.605Z,26.233
2022-10-16T13:26:49.445Z,26.279
2022-10-16T13:41:51.272Z,27.285
2022-10-16T13:57:09.116Z,25.712
2022-10-16T14:12:27.956Z,25.57
2022-10-16T14:27:30.331Z,25.888
2022-10-16T14:42:32.164Z,25.891
2022-10-16T14:57:33.998Z,25.572
2022-10-16T15:12:35.848Z,24.566
2022-10-16T15:27:37.667Z,24.562
2022-10-16T15:42:39.521Z,24.732
2022-10-16T15:57:41.351Z,26.066
2022-10-16T16:12:43.206Z,24.567
2022-10-16T16:27:45.072Z,24.504
2022-10-16T16:42:46.911Z,24.837
2022-10-16T16:57:48.767Z,25.461
2022-10-16T17:12:50.673Z,25.726
2022-10-16T17:27:53.124Z,25.281
2022-10-16T17:42:54.976Z,26.454
2022-10-16T17:57:56.810Z,27.045
2022-10-16T18:12:58.629Z,26.92
2022-10-16T18:28:00.485Z,28.042
2022-10-16T18:43:02.309Z,27.705
2022-10-16T18:58:04.156Z,28.187
2022-10-16T19:13:07.639Z,27.607
2022-10-16T19:28:12.137Z,27.181
2022-10-16T19:43:13.963Z,27.246
2022-10-16T19:58:15.806Z,28.661
2022-10-16T20:13:17.679Z,27.521
2022-10-16T20:28:19.515Z,27.196
2022-10-16T20:43:21.370Z,25.915
2022-10-16T20:58:23.168Z,26.274
2022-10-16T21:13:28.235Z,27.309
2022-10-16T21:28:32.594Z,27.26
2022-10-16T21:43:34.461Z,26.692
2022-10-16T21:58:36.289Z,27.207
2022-10-16T22:13:38.117Z,27.086
2022-10-16T22:28:40.070Z,26.696
2022-10-16T22:43:41.921Z,26.928
2022-10-16T22:58:43.786Z,27.358
2022-10-16T23:13:45.803Z,26.829
2022-10-16T23:28:47.759Z,26.835
2022-10-16T23:43:49.721Z,27.377
2022-10-16T23:58:51.592Z,27.477
